createdAt,value
2022-11-02T00:01:08.480Z,19.1
2022-11-02T00:06:00.736Z,19.1
2022-11-02T00:11:07.303Z,19.1
2022-11-02T00:16:13.663Z,19.1
2022-11-02T00:21:50.836Z,19.1
2022-11-02T00:27:12.727Z,19
2022-11-02T00:32:21.061Z,19
2022-11-02T00:38:02.370Z,19.1
2022-11-02T00:43:39.662Z,19
2022-11-02T00:49:01.625Z,19
2022-11-02T00:54:44.087Z,19
2022-11-02T01:00:21.291Z,19
2022-11-02T01:05:59.604Z,19
2022-11-02T01:11:38.970Z,19
2022-11-02T01:17:00.790Z,19
2022-11-02T01:22:22.484Z,19
2022-11-02T01:27:44.119Z,19
2022-11-02T01:33:22.143Z,19
2022-11-02T01:38:43.764Z,19
2022-11-02T01:44:05.327Z,18.9
2022-11-02T01:49:28.060Z,19
2022-11-02T01:54:49.801Z,18.9
2022-11-02T01:59:25.716Z,18.9
2022-11-02T02:04:15.706Z,18.9
2022-11-02T02:09:36.117Z,18.9
2022-11-02T02:14:57.724Z,18.9
2022-11-02T02:20:09.106Z,18.9
2022-11-02T02:24:59.303Z,18.9
2022-11-02T02:30:05.720Z,18.9
2022-11-02T02:35:27.272Z,18.9
2022-11-02T02:40:49.416Z,18.9
2022-11-02T02:46:11.359Z,18.9
2022-11-02T02:51:34.022Z,18.9
2022-11-02T02:56:54.743Z,18.9
2022-11-02T03:02:18.259Z,18.9
2022-11-02T03:07:40.302Z,18.9
2022-11-02T03:13:00.902Z,18.9
2022-11-02T03:18:24.070Z,18.9
2022-11-02T03:23:45.335Z,18.9
2022-11-02T03:29:07.292Z,18.9
2022-11-02T03:34:14.000Z,18.9
2022-11-02T03:39:04.143Z,18.8
2022-11-02T03:44:25.303Z,18.8
2022-11-02T03:49:32.286Z,18.9
2022-11-02T03:54:53.564Z,18.8
2022-11-02T04:00:14.361Z,18.8
2022-11-02T04:05:22.338Z,18.8
2022-11-02T04:11:01.627Z,18.8
2022-11-02T04:16:07.063Z,18.8
2022-11-02T04:21:17.046Z,18.8
2022-11-02T04:26:53.651Z,18.8
2022-11-02T04:32:30.325Z,18.8
2022-11-02T04:38:08.332Z,18.8
2022-11-02T04:43:46.079Z,18.8
2022-11-02T04:49:10.665Z,18.8
2022-11-02T04:54:36.383Z,18.8
2022-11-02T04:59:43.027Z,18.8
2022-11-02T05:05:09.855Z,18.8
2022-11-02T05:10:53.343Z,18.8
2022-11-02T05:16:30.390Z,18.8
2022-11-02T05:22:12.828Z,18.8
2022-11-02T05:27:39.982Z,18.8
2022-11-02T05:33:18.587Z,18.8
2022-11-02T05:38:55.598Z,18.8
2022-11-02T05:44:36.520Z,18.8
2022-11-02T06:32:49.950Z,18.6
2022-11-02T06:38:12.484Z,18.6
2022-11-02T06:44:13.418Z,18.6
2022-11-02T06:49:57.895Z,18.6
2022-11-02T07:00:27.900Z,18.6
2022-11-02T07:11:02.447Z,18.6
2022-11-02T07:16:40.469Z,18.6
2022-11-02T07:22:04.351Z,18.6
2022-11-02T07:27:41.987Z,18.6
2022-11-02T07:33:04.745Z,18.6
2022-11-02T07:38:47.655Z,18.6
2022-11-02T07:44:30.795Z,18.6
2022-11-02T07:50:11.986Z,18.6
2022-11-02T08:01:16.542Z,18.6
2022-11-02T09:11:42.284Z,18.8
2022-11-02T09:33:39.233Z,18.8
2022-11-02T09:39:16.713Z,18.8
2022-11-02T09:51:14.355Z,18.8
2022-11-02T10:23:33.517Z,18.8
2022-11-02T10:29:11.667Z,18.8
2022-11-02T10:34:35.833Z,18.8
2022-11-02T10:41:17.166Z,18.8
2022-11-02T10:46:39.591Z,18.9
2022-11-02T10:52:08.177Z,19.1
2022-11-02T10:57:55.341Z,19.1
2022-11-02T11:03:34.778Z,19.1
2022-11-02T11:08:57.534Z,19.1
2022-11-02T11:16:54.067Z,19.1
2022-11-02T11:23:54.902Z,19.5
2022-11-02T11:29:36.409Z,19.7
2022-11-02T11:35:32.800Z,20
2022-11-02T11:41:02.079Z,20
2022-11-02T11:45:37.896Z,20.2
2022-11-02T11:51:24.383Z,20.3
2022-11-02T11:56:16.990Z,20.5
2022-11-02T12:01:27.373Z,20.4
2022-11-02T12:06:37.240Z,20.4
2022-11-02T12:12:09.566Z,20.6
2022-11-02T12:17:36.153Z,20.8
2022-11-02T12:22:58.461Z,20.9
2022-11-02T12:28:05.520Z,20.9
2022-11-02T12:33:27.241Z,21
2022-11-02T12:39:56.029Z,21
2022-11-02T12:55:55.081Z,21.2
2022-11-02T13:01:02.469Z,21.2
2022-11-02T13:06:29.193Z,21
2022-11-02T13:17:08.220Z,21.2
2022-11-02T13:22:34.790Z,21.2
2022-11-02T13:28:09.174Z,21.2
2022-11-02T13:43:55.790Z,21.3
2022-11-02T13:49:17.683Z,21.4
2022-11-02T13:54:29.868Z,21.3
2022-11-02T14:00:16.090Z,21.3
2022-11-02T14:05:58.610Z,21.4
2022-11-02T14:11:36.828Z,21.4
2022-11-02T14:17:15.001Z,21.4
2022-11-02T14:22:57.149Z,21.4
2022-11-02T14:28:40.313Z,21.4
2022-11-02T14:34:17.254Z,21.4
2022-11-02T14:39:54.324Z,21.3
2022-11-02T14:45:34.834Z,21.3
2022-11-02T14:51:13.719Z,21.2
2022-11-02T15:01:48.172Z,21.1
2022-11-02T15:07:30.286Z,21
2022-11-02T15:13:10.969Z,20.9
2022-11-02T15:18:50.058Z,20.9
2022-11-02T15:24:38.848Z,20.8
2022-11-02T15:30:03.796Z,20.7
2022-11-02T15:36:03.486Z,20.6
2022-11-02T15:42:15.494Z,20.6
2022-11-02T15:48:07.043Z,20.6
2022-11-02T15:53:57.020Z,20.5
2022-11-02T15:59:19.176Z,20.4
2022-11-02T16:05:01.413Z,20.4
2022-11-02T16:10:52.941Z,20.3
2022-11-02T16:16:54.831Z,20.3
2022-11-02T16:22:34.650Z,20.2
2022-11-02T16:27:56.569Z,20.2
2022-11-02T16:33:42.795Z,20.2
2022-11-02T16:39:23.318Z,20.1
2022-11-02T16:44:36.588Z,20.1
2022-11-02T16:50:14.644Z,20.1
2022-11-02T16:55:55.328Z,20
2022-11-02T17:01:36.507Z,20
2022-11-02T17:07:03.550Z,19.9
2022-11-02T17:12:41.098Z,19.9
2022-11-02T17:18:25.600Z,19.9
2022-11-02T17:24:03.545Z,19.9
2022-11-02T17:29:10.526Z,19.9
2022-11-02T17:34:48.033Z,19.9
2022-11-02T17:40:31.176Z,19.8
2022-11-02T17:45:22.073Z,19.8
2022-11-02T17:50:45.407Z,19.8
2022-11-02T17:56:08.026Z,19.8
2022-11-02T18:01:14.907Z,19.8
2022-11-02T18:06:57.240Z,19.8
2022-11-02T18:12:35.704Z,19.8
2022-11-02T18:18:13.064Z,19.7
2022-11-02T18:23:50.087Z,19.7
2022-11-02T18:29:21.159Z,19.7
2022-11-02T18:34:59.051Z,19.7
2022-11-02T18:40:37.291Z,19.7
2022-11-02T18:46:03.423Z,19.6
2022-11-02T18:51:41.221Z,19.6
2022-11-02T18:57:10.821Z,19.6
2022-11-02T19:02:51.914Z,19.6
2022-11-02T19:08:36.472Z,19.6
2022-11-02T19:14:02.803Z,19.6
2022-11-02T19:19:24.713Z,19.6
2022-11-02T19:25:07.425Z,19.6
2022-11-02T19:30:46.440Z,19.6
2022-11-02T19:36:24.674Z,19.5
2022-11-02T19:42:05.365Z,19.5
2022-11-02T19:47:45.164Z,19.5
2022-11-02T19:53:26.240Z,19.5
2022-11-02T19:59:03.922Z,19.5
2022-11-02T20:04:26.550Z,19.5
2022-11-02T20:10:04.325Z,19.4
2022-11-02T20:15:26.712Z,19.5
2022-11-02T20:21:46.391Z,19.4
2022-11-02T20:27:24.387Z,19.4
2022-11-02T20:32:35.523Z,19.4
2022-11-02T20:38:16.205Z,19.4
2022-11-02T20:43:58.424Z,19.4
2022-11-02T20:50:44.415Z,19.4
2022-11-02T20:56:06.424Z,19.4
2022-11-02T21:01:44.907Z,19.4
2022-11-02T21:07:24.076Z,19.4
2022-11-02T21:13:04.914Z,19.4
2022-11-02T21:18:42.914Z,19.4
2022-11-02T21:24:33.234Z,19.4
2022-11-02T21:30:10.558Z,19.4
2022-11-02T21:35:49.253Z,19.4
2022-11-02T21:41:11.363Z,19.4
2022-11-02T21:46:49.790Z,19.4
2022-11-02T21:52:27.433Z,19.4
2022-11-02T21:58:05.532Z,19.5
2022-11-02T22:03:50.898Z,19.5
2022-11-02T22:09:18.097Z,19.5
2022-11-02T22:14:55.131Z,19.5
2022-11-02T22:21:01.693Z,19.5
2022-11-02T22:26:41.015Z,19.5
2022-11-02T22:32:18.104Z,19.5
2022-11-02T22:37:40.109Z,19.5
2022-11-02T22:43:18.049Z,19.6
2022-11-02T22:48:55.728Z,19.6
2022-11-02T22:54:22.248Z,19.6
2022-11-02T22:59:44.421Z,19.6
2022-11-02T23:05:07.472Z,19.6
2022-11-02T23:10:44.761Z,19.6
2022-11-02T23:16:06.861Z,19.6
2022-11-02T23:21:32.078Z,19.6
2022-11-02T23:26:54.229Z,19.6
2022-11-02T23:32:31.716Z,19.6
2022-11-02T23:37:38.599Z,19.6
2022-11-02T23:43:15.962Z,19.6
2022-11-02T23:48:38.191Z,19.6
2022-11-02T23:54:15.215Z,19.6
2022-11-02T23:59:51.881Z,19.6
